sensor_id;sensor_type;location;lat;lon;timestamp;P1;durP1;ratioP1;P2;durP2;ratioP2
3415;SDS011;1721;51.238;9.562;2023-07-29T00:01:19;5.10;;;2.40;;
3415;SDS011;1721;51.238;9.562;2023-07-29T00:03:48;5.70;;;2.30;;
3415;SDS011;1721;51.238;9.562;2023-07-29T00:06:13;6.30;;;2.90;;
3415;SDS011;1721;51.238;9.562;2023-07-29T00:08:39;5.17;;;2.40;;
3415;SDS011;1721;51.238;9.562;2023-07-29T00:11:04;6.67;;;2.30;;
3415;SDS011;1721;51.238;9.562;2023-07-29T00:13:30;6.60;;;3.10;;
3415;SDS011;1721;51.238;9.562;2023-07-29T00:15:55;7.50;;;3.13;;
3415;SDS011;1721;51.238;9.562;2023-07-29T00:18:21;5.10;;;2.33;;
3415;SDS011;1721;51.238;9.562;2023-07-29T00:20:48;5.03;;;2.47;;
3415;SDS011;1721;51.238;9.562;2023-07-29T00:23:14;5.20;;;2.50;;
3415;SDS011;1721;51.238;9.562;2023-07-29T00:25:39;5.90;;;2.80;;
3415;SDS011;1721;51.238;9.562;2023-07-29T00:28:05;9.63;;;2.70;;
3415;SDS011;1721;51.238;9.562;2023-07-29T00:30:31;7.73;;;2.60;;
3415;SDS011;1721;51.238;9.562;2023-07-29T00:32:56;8.30;;;2.67;;
3415;SDS011;1721;51.238;9.562;2023-07-29T00:35:22;6.93;;;2.50;;
3415;SDS011;1721;51.238;9.562;2023-07-29T00:37:47;6.47;;;2.90;;
3415;SDS011;1721;51.238;9.562;2023-07-29T00:40:20;5.30;;;3.10;;
3415;SDS011;1721;51.238;9.562;2023-07-29T00:42:46;6.73;;;2.93;;
3415;SDS011;1721;51.238;9.562;2023-07-29T00:45:12;6.37;;;2.80;;
3415;SDS011;1721;51.238;9.562;2023-07-29T00:47:38;5.97;;;3.20;;
3415;SDS011;1721;51.238;9.562;2023-07-29T00:50:04;6.30;;;3.30;;
3415;SDS011;1721;51.238;9.562;2023-07-29T00:52:31;4.60;;;2.07;;
3415;SDS011;1721;51.238;9.562;2023-07-29T00:54:57;6.17;;;2.23;;
3415;SDS011;1721;51.238;9.562;2023-07-29T00:57:23;5.50;;;2.37;;
3415;SDS011;1721;51.238;9.562;2023-07-29T00:59:50;5.63;;;2.30;;
3415;SDS011;1721;51.238;9.562;2023-07-29T01:02:16;5.40;;;2.63;;
3415;SDS011;1721;51.238;9.562;2023-07-29T01:04:42;4.23;;;2.03;;
3415;SDS011;1721;51.238;9.562;2023-07-29T01:09:55;5.07;;;2.27;;
3415;SDS011;1721;51.238;9.562;2023-07-29T01:12:35;5.40;;;2.07;;
3415;SDS011;1721;51.238;9.562;2023-07-29T01:15:28;6.63;;;2.63;;
3415;SDS011;1721;51.238;9.562;2023-07-29T01:18:08;6.33;;;2.50;;
3415;SDS011;1721;51.238;9.562;2023-07-29T01:20:40;4.70;;;2.13;;
3415;SDS011;1721;51.238;9.562;2023-07-29T01:23:08;5.80;;;2.50;;
3415;SDS011;1721;51.238;9.562;2023-07-29T01:25:34;6.70;;;2.20;;
3415;SDS011;1721;51.238;9.562;2023-07-29T01:28:00;6.20;;;2.13;;
3415;SDS011;1721;51.238;9.562;2023-07-29T01:30:28;5.87;;;2.87;;
3415;SDS011;1721;51.238;9.562;2023-07-29T01:35:46;9.90;;;2.40;;
3415;SDS011;1721;51.238;9.562;2023-07-29T01:38:19;5.73;;;2.67;;
3415;SDS011;1721;51.238;9.562;2023-07-29T01:41:00;6.20;;;2.70;;
3415;SDS011;1721;51.238;9.562;2023-07-29T01:43:30;7.17;;;2.80;;
3415;SDS011;1721;51.238;9.562;2023-07-29T01:45:56;4.50;;;1.90;;
3415;SDS011;1721;51.238;9.562;2023-07-29T01:48:22;5.87;;;2.57;;
3415;SDS011;1721;51.238;9.562;2023-07-29T01:50:47;6.27;;;2.77;;
3415;SDS011;1721;51.238;9.562;2023-07-29T01:53:13;5.30;;;2.63;;
3415;SDS011;1721;51.238;9.562;2023-07-29T01:55:39;5.60;;;2.90;;
3415;SDS011;1721;51.238;9.562;2023-07-29T01:58:05;4.80;;;2.57;;
3415;SDS011;1721;51.238;9.562;2023-07-29T02:00:31;7.33;;;3.20;;
3415;SDS011;1721;51.238;9.562;2023-07-29T02:02:57;6.50;;;2.73;;
3415;SDS011;1721;51.238;9.562;2023-07-29T02:05:22;6.57;;;2.83;;
3415;SDS011;1721;51.238;9.562;2023-07-29T02:07:48;7.17;;;2.40;;
3415;SDS011;1721;51.238;9.562;2023-07-29T02:10:13;6.07;;;2.90;;
3415;SDS011;1721;51.238;9.562;2023-07-29T02:12:39;6.67;;;2.83;;
3415;SDS011;1721;51.238;9.562;2023-07-29T02:15:05;5.67;;;3.00;;
3415;SDS011;1721;51.238;9.562;2023-07-29T02:17:31;4.97;;;2.70;;
3415;SDS011;1721;51.238;9.562;2023-07-29T02:19:56;5.93;;;3.10;;
3415;SDS011;1721;51.238;9.562;2023-07-29T02:22:22;6.10;;;3.20;;
3415;SDS011;1721;51.238;9.562;2023-07-29T02:24:47;6.07;;;3.20;;
3415;SDS011;1721;51.238;9.562;2023-07-29T02:27:13;5.70;;;3.30;;
3415;SDS011;1721;51.238;9.562;2023-07-29T02:29:38;6.90;;;3.10;;
3415;SDS011;1721;51.238;9.562;2023-07-29T02:32:04;6.07;;;2.97;;
3415;SDS011;1721;51.238;9.562;2023-07-29T02:34:30;5.10;;;2.83;;
3415;SDS011;1721;51.238;9.562;2023-07-29T02:36:55;7.20;;;3.70;;
3415;SDS011;1721;51.238;9.562;2023-07-29T02:39:21;5.60;;;2.83;;
3415;SDS011;1721;51.238;9.562;2023-07-29T02:41:46;6.20;;;2.63;;
3415;SDS011;1721;51.238;9.562;2023-07-29T02:44:12;6.23;;;3.13;;
3415;SDS011;1721;51.238;9.562;2023-07-29T02:46:37;10.27;;;2.50;;
3415;SDS011;1721;51.238;9.562;2023-07-29T02:49:03;6.57;;;2.83;;
3415;SDS011;1721;51.238;9.562;2023-07-29T02:51:29;5.33;;;3.07;;
3415;SDS011;1721;51.238;9.562;2023-07-29T02:53:55;7.20;;;2.50;;
3415;SDS011;1721;51.238;9.562;2023-07-29T02:56:21;7.07;;;2.83;;
3415;SDS011;1721;51.238;9.562;2023-07-29T02:58:47;8.60;;;2.70;;
3415;SDS011;1721;51.238;9.562;2023-07-29T03:01:12;5.23;;;2.20;;
3415;SDS011;1721;51.238;9.562;2023-07-29T03:03:38;5.80;;;2.37;;
3415;SDS011;1721;51.238;9.562;2023-07-29T03:06:05;15.10;;;2.97;;
3415;SDS011;1721;51.238;9.562;2023-07-29T03:08:32;4.63;;;2.40;;
3415;SDS011;1721;51.238;9.562;2023-07-29T03:10:58;5.27;;;2.50;;
3415;SDS011;1721;51.238;9.562;2023-07-29T03:13:24;4.83;;;1.93;;
3415;SDS011;1721;51.238;9.562;2023-07-29T03:15:50;4.90;;;2.37;;
3415;SDS011;1721;51.238;9.562;2023-07-29T03:18:16;4.33;;;2.30;;
3415;SDS011;1721;51.238;9.562;2023-07-29T03:20:41;8.00;;;2.07;;
3415;SDS011;1721;51.238;9.562;2023-07-29T03:23:07;4.13;;;2.10;;
3415;SDS011;1721;51.238;9.562;2023-07-29T03:25:32;6.77;;;2.33;;
3415;SDS011;1721;51.238;9.562;2023-07-29T03:27:58;4.97;;;1.77;;
3415;SDS011;1721;51.238;9.562;2023-07-29T03:30:24;6.73;;;2.33;;
3415;SDS011;1721;51.238;9.562;2023-07-29T03:32:50;4.00;;;2.03;;
3415;SDS011;1721;51.238;9.562;2023-07-29T03:35:16;4.00;;;2.10;;
3415;SDS011;1721;51.238;9.562;2023-07-29T03:37:42;5.07;;;2.03;;
3415;SDS011;1721;51.238;9.562;2023-07-29T03:40:07;5.07;;;2.20;;
3415;SDS011;1721;51.238;9.562;2023-07-29T03:42:36;5.50;;;2.50;;
3415;SDS011;1721;51.238;9.562;2023-07-29T03:45:02;3.90;;;1.90;;
3415;SDS011;1721;51.238;9.562;2023-07-29T03:47:27;3.83;;;1.73;;
3415;SDS011;1721;51.238;9.562;2023-07-29T03:49:53;7.77;;;2.20;;
3415;SDS011;1721;51.238;9.562;2023-07-29T03:52:19;4.70;;;2.27;;
3415;SDS011;1721;51.238;9.562;2023-07-29T03:54:44;4.93;;;2.03;;
3415;SDS011;1721;51.238;9.562;2023-07-29T03:57:10;4.13;;;1.93;;
3415;SDS011;1721;51.238;9.562;2023-07-29T03:59:36;5.70;;;2.40;;
3415;SDS011;1721;51.238;9.562;2023-07-29T04:02:02;4.97;;;2.20;;
3415;SDS011;1721;51.238;9.562;2023-07-29T04:04:28;6.83;;;1.90;;
3415;SDS011;1721;51.238;9.562;2023-07-29T04:06:53;3.80;;;2.07;;
3415;SDS011;1721;51.238;9.562;2023-07-29T04:09:19;4.47;;;1.80;;
3415;SDS011;1721;51.238;9.562;2023-07-29T04:11:44;5.03;;;2.50;;
3415;SDS011;1721;51.238;9.562;2023-07-29T04:14:10;5.20;;;2.70;;
3415;SDS011;1721;51.238;9.562;2023-07-29T04:16:35;7.20;;;2.07;;
3415;SDS011;1721;51.238;9.562;2023-07-29T04:19:01;10.30;;;2.50;;
3415;SDS011;1721;51.238;9.562;2023-07-29T04:21:26;4.50;;;2.40;;
3415;SDS011;1721;51.238;9.562;2023-07-29T04:23:52;5.73;;;2.50;;
3415;SDS011;1721;51.238;9.562;2023-07-29T04:26:18;10.90;;;2.90;;
3415;SDS011;1721;51.238;9.562;2023-07-29T04:28:43;4.03;;;2.03;;
3415;SDS011;1721;51.238;9.562;2023-07-29T04:31:09;5.60;;;2.37;;
3415;SDS011;1721;51.238;9.562;2023-07-29T04:33:34;5.20;;;2.63;;
3415;SDS011;1721;51.238;9.562;2023-07-29T04:36:00;4.77;;;2.47;;
3415;SDS011;1721;51.238;9.562;2023-07-29T04:38:30;4.47;;;2.23;;
3415;SDS011;1721;51.238;9.562;2023-07-29T04:40:59;5.57;;;2.77;;
3415;SDS011;1721;51.238;9.562;2023-07-29T04:43:30;4.93;;;2.40;;
3415;SDS011;1721;51.238;9.562;2023-07-29T04:45:56;4.43;;;2.40;;
3415;SDS011;1721;51.238;9.562;2023-07-29T04:48:22;4.70;;;2.50;;
3415;SDS011;1721;51.238;9.562;2023-07-29T04:50:47;4.57;;;2.40;;
3415;SDS011;1721;51.238;9.562;2023-07-29T04:53:13;6.07;;;2.90;;
3415;SDS011;1721;51.238;9.562;2023-07-29T04:55:41;7.00;;;2.60;;
3415;SDS011;1721;51.238;9.562;2023-07-29T04:58:09;5.40;;;2.60;;
3415;SDS011;1721;51.238;9.562;2023-07-29T05:00:35;5.80;;;2.80;;
3415;SDS011;1721;51.238;9.562;2023-07-29T05:03:00;7.33;;;3.10;;
3415;SDS011;1721;51.238;9.562;2023-07-29T05:05:26;6.90;;;2.80;;
3415;SDS011;1721;51.238;9.562;2023-07-29T05:07:52;4.97;;;2.93;;
3415;SDS011;1721;51.238;9.562;2023-07-29T05:10:17;5.40;;;2.80;;
3415;SDS011;1721;51.238;9.562;2023-07-29T05:12:44;6.03;;;3.20;;
3415;SDS011;1721;51.238;9.562;2023-07-29T05:15:10;5.93;;;3.10;;
3415;SDS011;1721;51.238;9.562;2023-07-29T05:17:35;5.63;;;2.87;;
3415;SDS011;1721;51.238;9.562;2023-07-29T05:20:01;7.30;;;3.20;;
3415;SDS011;1721;51.238;9.562;2023-07-29T05:22:27;6.43;;;3.27;;
3415;SDS011;1721;51.238;9.562;2023-07-29T05:24:52;4.77;;;2.63;;
3415;SDS011;1721;51.238;9.562;2023-07-29T05:27:18;7.60;;;2.63;;
3415;SDS011;1721;51.238;9.562;2023-07-29T05:29:43;5.67;;;2.80;;
3415;SDS011;1721;51.238;9.562;2023-07-29T05:32:09;5.30;;;2.73;;
3415;SDS011;1721;51.238;9.562;2023-07-29T05:34:34;6.10;;;2.80;;
3415;SDS011;1721;51.238;9.562;2023-07-29T05:37:00;8.43;;;3.23;;
3415;SDS011;1721;51.238;9.562;2023-07-29T05:39:25;6.33;;;3.07;;
3415;SDS011;1721;51.238;9.562;2023-07-29T05:41:51;9.07;;;3.77;;
3415;SDS011;1721;51.238;9.562;2023-07-29T05:44:16;8.70;;;3.40;;
3415;SDS011;1721;51.238;9.562;2023-07-29T05:46:42;6.93;;;3.70;;
3415;SDS011;1721;51.238;9.562;2023-07-29T05:49:07;6.83;;;3.17;;
3415;SDS011;1721;51.238;9.562;2023-07-29T05:51:33;6.93;;;3.70;;
3415;SDS011;1721;51.238;9.562;2023-07-29T05:53:58;6.23;;;3.10;;
3415;SDS011;1721;51.238;9.562;2023-07-29T05:56:24;7.57;;;3.80;;
3415;SDS011;1721;51.238;9.562;2023-07-29T05:58:49;7.63;;;3.20;;
3415;SDS011;1721;51.238;9.562;2023-07-29T06:01:15;6.33;;;3.20;;
3415;SDS011;1721;51.238;9.562;2023-07-29T06:03:40;6.70;;;3.03;;
3415;SDS011;1721;51.238;9.562;2023-07-29T06:06:06;7.20;;;3.63;;
3415;SDS011;1721;51.238;9.562;2023-07-29T06:08:32;5.67;;;3.03;;
3415;SDS011;1721;51.238;9.562;2023-07-29T06:10:59;6.00;;;3.00;;
3415;SDS011;1721;51.238;9.562;2023-07-29T06:13:25;5.20;;;3.00;;
3415;SDS011;1721;51.238;9.562;2023-07-29T06:15:50;5.83;;;2.90;;
3415;SDS011;1721;51.238;9.562;2023-07-29T06:18:16;6.53;;;3.07;;
3415;SDS011;1721;51.238;9.562;2023-07-29T06:20:41;5.30;;;2.63;;
3415;SDS011;1721;51.238;9.562;2023-07-29T06:23:07;7.17;;;3.27;;
3415;SDS011;1721;51.238;9.562;2023-07-29T06:25:33;7.63;;;3.37;;
3415;SDS011;1721;51.238;9.562;2023-07-29T06:27:59;7.03;;;3.20;;
3415;SDS011;1721;51.238;9.562;2023-07-29T06:30:25;6.50;;;2.60;;
3415;SDS011;1721;51.238;9.562;2023-07-29T06:32:50;6.33;;;2.50;;
3415;SDS011;1721;51.238;9.562;2023-07-29T06:35:16;4.97;;;2.40;;
3415;SDS011;1721;51.238;9.562;2023-07-29T06:37:42;4.87;;;2.10;;
3415;SDS011;1721;51.238;9.562;2023-07-29T06:40:08;4.77;;;2.30;;
3415;SDS011;1721;51.238;9.562;2023-07-29T06:42:33;5.07;;;2.33;;
3415;SDS011;1721;51.238;9.562;2023-07-29T06:44:59;5.30;;;2.60;;
3415;SDS011;1721;51.238;9.562;2023-07-29T06:47:24;4.20;;;1.90;;
3415;SDS011;1721;51.238;9.562;2023-07-29T06:49:50;4.60;;;2.40;;
3415;SDS011;1721;51.238;9.562;2023-07-29T06:52:15;6.73;;;2.60;;
3415;SDS011;1721;51.238;9.562;2023-07-29T06:54:41;4.40;;;2.20;;
3415;SDS011;1721;51.238;9.562;2023-07-29T06:57:06;5.83;;;2.70;;
3415;SDS011;1721;51.238;9.562;2023-07-29T06:59:33;4.83;;;2.50;;
3415;SDS011;1721;51.238;9.562;2023-07-29T07:01:58;5.67;;;2.50;;
3415;SDS011;1721;51.238;9.562;2023-07-29T07:04:25;5.17;;;2.40;;
3415;SDS011;1721;51.238;9.562;2023-07-29T07:06:50;7.83;;;3.10;;
3415;SDS011;1721;51.238;9.562;2023-07-29T07:09:16;4.73;;;2.33;;
3415;SDS011;1721;51.238;9.562;2023-07-29T07:11:41;5.70;;;2.63;;
3415;SDS011;1721;51.238;9.562;2023-07-29T07:14:07;4.97;;;2.50;;
3415;SDS011;1721;51.238;9.562;2023-07-29T07:16:32;5.23;;;2.80;;
3415;SDS011;1721;51.238;9.562;2023-07-29T07:18:58;7.20;;;2.93;;
3415;SDS011;1721;51.238;9.562;2023-07-29T07:21:23;5.10;;;2.57;;
3415;SDS011;1721;51.238;9.562;2023-07-29T07:23:49;4.80;;;2.30;;
3415;SDS011;1721;51.238;9.562;2023-07-29T07:26:15;4.63;;;2.33;;
3415;SDS011;1721;51.238;9.562;2023-07-29T07:28:41;4.90;;;2.30;;
3415;SDS011;1721;51.238;9.562;2023-07-29T07:31:06;4.57;;;1.97;;
3415;SDS011;1721;51.238;9.562;2023-07-29T07:33:32;7.47;;;2.53;;
3415;SDS011;1721;51.238;9.562;2023-07-29T07:35:57;4.83;;;2.30;;
3415;SDS011;1721;51.238;9.562;2023-07-29T07:38:23;5.33;;;2.43;;
3415;SDS011;1721;51.238;9.562;2023-07-29T07:40:52;4.50;;;2.10;;
3415;SDS011;1721;51.238;9.562;2023-07-29T07:43:21;9.30;;;3.10;;
3415;SDS011;1721;51.238;9.562;2023-07-29T07:45:47;6.93;;;2.73;;
3415;SDS011;1721;51.238;9.562;2023-07-29T07:48:13;7.17;;;2.60;;
3415;SDS011;1721;51.238;9.562;2023-07-29T07:50:39;6.33;;;2.70;;
3415;SDS011;1721;51.238;9.562;2023-07-29T07:53:04;7.40;;;2.30;;
3415;SDS011;1721;51.238;9.562;2023-07-29T07:55:30;5.70;;;2.60;;
3415;SDS011;1721;51.238;9.562;2023-07-29T07:57:55;5.53;;;2.80;;
3415;SDS011;1721;51.238;9.562;2023-07-29T08:00:21;7.70;;;2.67;;
3415;SDS011;1721;51.238;9.562;2023-07-29T08:02:46;5.83;;;2.97;;
3415;SDS011;1721;51.238;9.562;2023-07-29T08:05:12;7.77;;;2.57;;
3415;SDS011;1721;51.238;9.562;2023-07-29T08:07:38;5.40;;;2.37;;
3415;SDS011;1721;51.238;9.562;2023-07-29T08:10:03;6.47;;;2.33;;
3415;SDS011;1721;51.238;9.562;2023-07-29T08:12:29;8.30;;;2.47;;
3415;SDS011;1721;51.238;9.562;2023-07-29T08:14:55;4.90;;;2.40;;
3415;SDS011;1721;51.238;9.562;2023-07-29T08:17:20;5.30;;;2.20;;
3415;SDS011;1721;51.238;9.562;2023-07-29T08:19:46;5.40;;;2.40;;
3415;SDS011;1721;51.238;9.562;2023-07-29T08:22:11;4.67;;;2.10;;
3415;SDS011;1721;51.238;9.562;2023-07-29T08:24:37;4.90;;;2.50;;
3415;SDS011;1721;51.238;9.562;2023-07-29T08:27:02;6.40;;;2.30;;
3415;SDS011;1721;51.238;9.562;2023-07-29T08:29:28;4.70;;;2.30;;
3415;SDS011;1721;51.238;9.562;2023-07-29T08:31:54;6.57;;;2.70;;
3415;SDS011;1721;51.238;9.562;2023-07-29T08:34:20;5.00;;;2.43;;
3415;SDS011;1721;51.238;9.562;2023-07-29T08:36:46;4.13;;;1.90;;
3415;SDS011;1721;51.238;9.562;2023-07-29T08:39:11;5.20;;;2.23;;
3415;SDS011;1721;51.238;9.562;2023-07-29T08:41:37;4.43;;;1.90;;
3415;SDS011;1721;51.238;9.562;2023-07-29T08:44:35;4.47;;;2.17;;
3415;SDS011;1721;51.238;9.562;2023-07-29T08:47:08;5.77;;;2.97;;
3415;SDS011;1721;51.238;9.562;2023-07-29T08:49:34;6.83;;;2.03;;
3415;SDS011;1721;51.238;9.562;2023-07-29T08:52:01;5.20;;;2.40;;
3415;SDS011;1721;51.238;9.562;2023-07-29T08:54:28;4.83;;;2.17;;
3415;SDS011;1721;51.238;9.562;2023-07-29T08:56:54;6.00;;;2.10;;
3415;SDS011;1721;51.238;9.562;2023-07-29T08:59:20;4.40;;;2.17;;
3415;SDS011;1721;51.238;9.562;2023-07-29T09:01:46;4.97;;;1.90;;
3415;SDS011;1721;51.238;9.562;2023-07-29T09:04:12;5.17;;;2.30;;
3415;SDS011;1721;51.238;9.562;2023-07-29T09:06:38;4.93;;;2.20;;
3415;SDS011;1721;51.238;9.562;2023-07-29T09:09:05;4.33;;;2.17;;
3415;SDS011;1721;51.238;9.562;2023-07-29T09:11:32;5.77;;;2.20;;
3415;SDS011;1721;51.238;9.562;2023-07-29T09:13:58;4.83;;;2.33;;
3415;SDS011;1721;51.238;9.562;2023-07-29T09:16:24;5.20;;;2.23;;
3415;SDS011;1721;51.238;9.562;2023-07-29T09:18:50;4.93;;;2.40;;
3415;SDS011;1721;51.238;9.562;2023-07-29T09:21:17;10.67;;;2.23;;
3415;SDS011;1721;51.238;9.562;2023-07-29T09:23:47;5.23;;;2.10;;
3415;SDS011;1721;51.238;9.562;2023-07-29T09:26:14;7.03;;;2.10;;
3415;SDS011;1721;51.238;9.562;2023-07-29T09:28:51;3.60;;;1.63;;
3415;SDS011;1721;51.238;9.562;2023-07-29T09:31:19;4.90;;;1.90;;
3415;SDS011;1721;51.238;9.562;2023-07-29T09:33:46;7.07;;;2.60;;
3415;SDS011;1721;51.238;9.562;2023-07-29T09:36:12;4.40;;;1.87;;
3415;SDS011;1721;51.238;9.562;2023-07-29T09:38:38;4.77;;;2.13;;
3415;SDS011;1721;51.238;9.562;2023-07-29T09:41:04;4.03;;;1.73;;
3415;SDS011;1721;51.238;9.562;2023-07-29T09:43:30;4.40;;;1.83;;
3415;SDS011;1721;51.238;9.562;2023-07-29T09:46:01;4.60;;;1.73;;
3415;SDS011;1721;51.238;9.562;2023-07-29T09:48:28;9.87;;;1.90;;
3415;SDS011;1721;51.238;9.562;2023-07-29T09:50:57;5.07;;;1.90;;
3415;SDS011;1721;51.238;9.562;2023-07-29T09:53:23;5.30;;;2.33;;
3415;SDS011;1721;51.238;9.562;2023-07-29T09:55:50;6.00;;;2.30;;
3415;SDS011;1721;51.238;9.562;2023-07-29T09:58:19;3.80;;;1.77;;
3415;SDS011;1721;51.238;9.562;2023-07-29T10:00:51;4.00;;;1.63;;
3415;SDS011;1721;51.238;9.562;2023-07-29T10:03:17;4.37;;;1.97;;
3415;SDS011;1721;51.238;9.562;2023-07-29T10:05:45;5.17;;;2.20;;
3415;SDS011;1721;51.238;9.562;2023-07-29T10:08:11;4.57;;;2.03;;
3415;SDS011;1721;51.238;9.562;2023-07-29T10:10:38;4.50;;;1.77;;
3415;SDS011;1721;51.238;9.562;2023-07-29T10:13:03;5.00;;;2.30;;
3415;SDS011;1721;51.238;9.562;2023-07-29T10:15:30;4.37;;;1.60;;
3415;SDS011;1721;51.238;9.562;2023-07-29T10:17:57;4.90;;;2.30;;
3415;SDS011;1721;51.238;9.562;2023-07-29T10:20:24;7.13;;;1.97;;
3415;SDS011;1721;51.238;9.562;2023-07-29T10:22:50;5.43;;;2.40;;
3415;SDS011;1721;51.238;9.562;2023-07-29T10:25:24;4.20;;;1.70;;
3415;SDS011;1721;51.238;9.562;2023-07-29T10:28:07;8.27;;;2.30;;
3415;SDS011;1721;51.238;9.562;2023-07-29T10:30:36;5.37;;;2.20;;
3415;SDS011;1721;51.238;9.562;2023-07-29T10:33:03;4.80;;;1.80;;
3415;SDS011;1721;51.238;9.562;2023-07-29T10:35:32;5.03;;;2.00;;
3415;SDS011;1721;51.238;9.562;2023-07-29T10:37:58;7.23;;;2.40;;
3415;SDS011;1721;51.238;9.562;2023-07-29T10:40:25;5.50;;;2.20;;
3415;SDS011;1721;51.238;9.562;2023-07-29T10:43:00;4.60;;;2.30;;
3415;SDS011;1721;51.238;9.562;2023-07-29T10:45:35;5.63;;;1.70;;
3415;SDS011;1721;51.238;9.562;2023-07-29T10:48:05;4.40;;;1.83;;
3415;SDS011;1721;51.238;9.562;2023-07-29T10:50:37;7.90;;;2.70;;
3415;SDS011;1721;51.238;9.562;2023-07-29T10:53:03;5.20;;;2.40;;
3415;SDS011;1721;51.238;9.562;2023-07-29T10:55:30;5.90;;;2.50;;
3415;SDS011;1721;51.238;9.562;2023-07-29T10:58:31;5.67;;;2.00;;
3415;SDS011;1721;51.238;9.562;2023-07-29T11:00:50;8.90;;;2.70;;
3415;SDS011;1721;51.238;9.562;2023-07-29T11:03:15;4.93;;;2.17;;
3415;SDS011;1721;51.238;9.562;2023-07-29T11:05:42;4.80;;;2.13;;
3415;SDS011;1721;51.238;9.562;2023-07-29T11:13:30;5.00;;;2.27;;
3415;SDS011;1721;51.238;9.562;2023-07-29T11:15:57;5.03;;;2.43;;
3415;SDS011;1721;51.238;9.562;2023-07-29T11:18:27;7.20;;;2.53;;
3415;SDS011;1721;51.238;9.562;2023-07-29T11:20:54;5.60;;;2.30;;
3415;SDS011;1721;51.238;9.562;2023-07-29T11:23:21;4.50;;;1.93;;
3415;SDS011;1721;51.238;9.562;2023-07-29T11:25:55;5.10;;;2.30;;
3415;SDS011;1721;51.238;9.562;2023-07-29T11:28:21;4.93;;;2.30;;
3415;SDS011;1721;51.238;9.562;2023-07-29T11:30:47;4.40;;;1.83;;
3415;SDS011;1721;51.238;9.562;2023-07-29T11:33:16;7.90;;;2.30;;
3415;SDS011;1721;51.238;9.562;2023-07-29T11:35:46;4.83;;;2.10;;
3415;SDS011;1721;51.238;9.562;2023-07-29T11:38:14;5.90;;;2.47;;
3415;SDS011;1721;51.238;9.562;2023-07-29T11:40:41;4.93;;;2.13;;
3415;SDS011;1721;51.238;9.562;2023-07-29T11:43:06;6.00;;;2.27;;
3415;SDS011;1721;51.238;9.562;2023-07-29T11:45:32;6.60;;;2.10;;
3415;SDS011;1721;51.238;9.562;2023-07-29T11:47:58;8.40;;;2.50;;
3415;SDS011;1721;51.238;9.562;2023-07-29T11:50:25;4.70;;;2.03;;
3415;SDS011;1721;51.238;9.562;2023-07-29T11:52:51;5.20;;;2.00;;
3415;SDS011;1721;51.238;9.562;2023-07-29T11:55:17;5.40;;;2.60;;
3415;SDS011;1721;51.238;9.562;2023-07-29T11:57:44;5.20;;;2.47;;
3415;SDS011;1721;51.238;9.562;2023-07-29T12:00:15;5.53;;;2.50;;
3415;SDS011;1721;51.238;9.562;2023-07-29T12:02:43;4.60;;;2.20;;
3415;SDS011;1721;51.238;9.562;2023-07-29T12:05:10;4.83;;;2.10;;
3415;SDS011;1721;51.238;9.562;2023-07-29T12:07:39;4.97;;;2.30;;
3415;SDS011;1721;51.238;9.562;2023-07-29T12:10:07;5.10;;;2.10;;
3415;SDS011;1721;51.238;9.562;2023-07-29T12:12:38;4.97;;;2.30;;
3415;SDS011;1721;51.238;9.562;2023-07-29T12:15:10;6.53;;;2.20;;
3415;SDS011;1721;51.238;9.562;2023-07-29T12:17:41;5.30;;;2.17;;
3415;SDS011;1721;51.238;9.562;2023-07-29T12:20:10;5.40;;;2.10;;
3415;SDS011;1721;51.238;9.562;2023-07-29T12:22:36;4.70;;;2.20;;
3415;SDS011;1721;51.238;9.562;2023-07-29T12:25:02;5.37;;;2.37;;
3415;SDS011;1721;51.238;9.562;2023-07-29T12:27:29;6.20;;;2.60;;
3415;SDS011;1721;51.238;9.562;2023-07-29T12:29:55;5.10;;;2.20;;
3415;SDS011;1721;51.238;9.562;2023-07-29T12:32:24;4.43;;;1.93;;
3415;SDS011;1721;51.238;9.562;2023-07-29T12:34:52;6.67;;;2.17;;
3415;SDS011;1721;51.238;9.562;2023-07-29T12:37:18;4.57;;;1.80;;
3415;SDS011;1721;51.238;9.562;2023-07-29T12:39:44;4.57;;;2.13;;
3415;SDS011;1721;51.238;9.562;2023-07-29T12:42:10;4.40;;;2.10;;
3415;SDS011;1721;51.238;9.562;2023-07-29T12:44:36;4.90;;;2.10;;
3415;SDS011;1721;51.238;9.562;2023-07-29T12:47:04;12.63;;;2.43;;
3415;SDS011;1721;51.238;9.562;2023-07-29T12:49:31;4.90;;;2.33;;
3415;SDS011;1721;51.238;9.562;2023-07-29T12:51:57;5.00;;;2.20;;
3415;SDS011;1721;51.238;9.562;2023-07-29T12:54:23;4.97;;;1.80;;
3415;SDS011;1721;51.238;9.562;2023-07-29T12:56:49;4.43;;;1.93;;
3415;SDS011;1721;51.238;9.562;2023-07-29T12:59:14;4.30;;;1.80;;
3415;SDS011;1721;51.238;9.562;2023-07-29T13:01:40;3.90;;;1.60;;
3415;SDS011;1721;51.238;9.562;2023-07-29T13:04:05;4.13;;;1.50;;
3415;SDS011;1721;51.238;9.562;2023-07-29T13:06:31;5.27;;;1.20;;
3415;SDS011;1721;51.238;9.562;2023-07-29T13:08:56;4.13;;;1.53;;
3415;SDS011;1721;51.238;9.562;2023-07-29T13:11:22;6.23;;;1.60;;
3415;SDS011;1721;51.238;9.562;2023-07-29T13:13:49;3.73;;;1.43;;
3415;SDS011;1721;51.238;9.562;2023-07-29T13:16:15;5.63;;;1.30;;
3415;SDS011;1721;51.238;9.562;2023-07-29T13:18:40;6.07;;;1.70;;
3415;SDS011;1721;51.238;9.562;2023-07-29T13:21:07;8.20;;;1.77;;
3415;SDS011;1721;51.238;9.562;2023-07-29T13:23:33;4.33;;;1.30;;
3415;SDS011;1721;51.238;9.562;2023-07-29T13:25:59;4.60;;;1.50;;
3415;SDS011;1721;51.238;9.562;2023-07-29T13:28:24;4.23;;;1.57;;
3415;SDS011;1721;51.238;9.562;2023-07-29T13:30:50;4.07;;;1.57;;
3415;SDS011;1721;51.238;9.562;2023-07-29T13:33:16;4.13;;;1.50;;
3415;SDS011;1721;51.238;9.562;2023-07-29T13:35:41;4.83;;;1.80;;
3415;SDS011;1721;51.238;9.562;2023-07-29T13:38:07;4.40;;;1.60;;
3415;SDS011;1721;51.238;9.562;2023-07-29T13:40:34;6.93;;;2.30;;
3415;SDS011;1721;51.238;9.562;2023-07-29T13:42:59;4.83;;;2.07;;
3415;SDS011;1721;51.238;9.562;2023-07-29T13:45:25;5.20;;;2.10;;
3415;SDS011;1721;51.238;9.562;2023-07-29T13:47:51;13.13;;;1.87;;
3415;SDS011;1721;51.238;9.562;2023-07-29T13:50:17;5.53;;;2.00;;
3415;SDS011;1721;51.238;9.562;2023-07-29T13:52:45;5.90;;;2.40;;
3415;SDS011;1721;51.238;9.562;2023-07-29T13:55:10;6.40;;;1.80;;
3415;SDS011;1721;51.238;9.562;2023-07-29T13:57:36;8.70;;;2.33;;
3415;SDS011;1721;51.238;9.562;2023-07-29T14:00:03;4.40;;;1.90;;
3415;SDS011;1721;51.238;9.562;2023-07-29T14:02:30;5.20;;;2.10;;
3415;SDS011;1721;51.238;9.562;2023-07-29T14:04:56;4.80;;;1.70;;
3415;SDS011;1721;51.238;9.562;2023-07-29T14:07:21;5.33;;;1.97;;
3415;SDS011;1721;51.238;9.562;2023-07-29T14:09:47;5.40;;;2.00;;
3415;SDS011;1721;51.238;9.562;2023-07-29T14:12:13;5.20;;;2.13;;
3415;SDS011;1721;51.238;9.562;2023-07-29T14:14:40;6.30;;;2.53;;
3415;SDS011;1721;51.238;9.562;2023-07-29T14:17:06;4.37;;;2.03;;
3415;SDS011;1721;51.238;9.562;2023-07-29T14:19:33;4.60;;;1.80;;
3415;SDS011;1721;51.238;9.562;2023-07-29T14:21:59;5.20;;;2.07;;
3415;SDS011;1721;51.238;9.562;2023-07-29T14:24:25;6.83;;;2.20;;
3415;SDS011;1721;51.238;9.562;2023-07-29T14:26:51;5.57;;;1.93;;
3415;SDS011;1721;51.238;9.562;2023-07-29T14:29:16;5.20;;;1.87;;
3415;SDS011;1721;51.238;9.562;2023-07-29T14:31:42;6.63;;;1.90;;
3415;SDS011;1721;51.238;9.562;2023-07-29T14:34:07;4.33;;;1.90;;
3415;SDS011;1721;51.238;9.562;2023-07-29T14:36:34;4.73;;;1.90;;
3415;SDS011;1721;51.238;9.562;2023-07-29T14:39:00;3.70;;;1.20;;
3415;SDS011;1721;51.238;9.562;2023-07-29T14:41:25;4.10;;;1.37;;
3415;SDS011;1721;51.238;9.562;2023-07-29T14:43:51;4.90;;;1.60;;
3415;SDS011;1721;51.238;9.562;2023-07-29T14:46:17;3.87;;;1.43;;
3415;SDS011;1721;51.238;9.562;2023-07-29T14:48:42;4.30;;;1.43;;
3415;SDS011;1721;51.238;9.562;2023-07-29T14:51:08;5.07;;;1.63;;
3415;SDS011;1721;51.238;9.562;2023-07-29T14:53:34;5.70;;;1.30;;
3415;SDS011;1721;51.238;9.562;2023-07-29T14:55:59;5.17;;;1.50;;
3415;SDS011;1721;51.238;9.562;2023-07-29T14:58:25;5.00;;;1.10;;
3415;SDS011;1721;51.238;9.562;2023-07-29T15:00:51;3.70;;;1.33;;
3415;SDS011;1721;51.238;9.562;2023-07-29T15:03:17;3.90;;;1.07;;
3415;SDS011;1721;51.238;9.562;2023-07-29T15:05:42;4.53;;;1.13;;
3415;SDS011;1721;51.238;9.562;2023-07-29T15:08:08;4.10;;;1.27;;
3415;SDS011;1721;51.238;9.562;2023-07-29T15:10:34;3.70;;;1.40;;
3415;SDS011;1721;51.238;9.562;2023-07-29T15:12:59;4.33;;;1.30;;
3415;SDS011;1721;51.238;9.562;2023-07-29T15:15:25;5.97;;;1.20;;
3415;SDS011;1721;51.238;9.562;2023-07-29T15:17:51;4.30;;;1.10;;
3415;SDS011;1721;51.238;9.562;2023-07-29T15:20:16;7.53;;;1.50;;
3415;SDS011;1721;51.238;9.562;2023-07-29T15:22:42;4.00;;;1.40;;